FR-0075 weather

Public forecast

Using degrees Celsius for public forecast. Weather courtesy of forecast.io.

Closest aviation weather report (METAR) to Centre Hospitalier de Lons le Saunier Heliport

Closest report is Dole-Tavaux Airport, 22.4 nm (41.5 km) NNW. Retrieved 2020/08/12 17:30 UTC (0 seconds ago):

LFGJ 121730Z AUTO 18011KT CAVOK 32/13 Q1012

Closest aviation forecast (TAF) to Centre Hospitalier de Lons le Saunier Heliport

Forecast is more than 12 hours old.

Closest forecast is Dole-Tavaux Airport, 22.4 nm (41.5 km) NNW. Retrieved 2020/06/22 09:21 UTC (2 months ago):

TAF LFGJ 220800Z 2209/2221 01008KT 9999 FEW035 BKN053 BECMG 2212/2215 CAVOK